Time;durP1;ratioP1;P1;durP2;ratioP2;P2;SDS_P1;SDS_P2;PMS_P1;PMS_P2;Temp;Humidity;BMP_temperature;BMP_pressure;BME280_temperature;BME280_humidity;BME280_pressure;Samples;Min_cycle;Max_cycle;Signal;HPM_P1;HPM_P2
2021/04/16 00:01:32;;;;;;;4.40;4.00;;;;;;;8.31;43.63;102512.56;5019082;28;20221;-67
2021/04/16 00:03:57;;;;;;;4.00;3.47;;;;;;;8.54;43.21;102513.72;5019091;28;20175;-67
2021/04/16 00:06:23;;;;;;;4.97;3.67;;;;;;;8.48;43.25;102513.41;5020061;28;20537;-68
2021/04/16 00:08:48;;;;;;;4.00;3.60;;;;;;;8.30;43.55;102510.81;5018487;28;20179;-67
2021/04/16 00:11:17;;;;;;;5.10;4.60;;;;;;;8.09;44.03;102508.94;5019094;28;20421;-68
2021/04/16 00:13:42;;;;;;;5.17;3.60;;;;;;;8.10;44.37;102515.91;5021425;28;20171;-68
2021/04/16 00:16:12;;;;;;;5.00;3.73;;;;;;;7.82;44.39;102508.50;5021994;28;20508;-68
2021/04/16 00:18:37;;;;;;;5.53;4.10;;;;;;;7.82;44.83;102504.22;5021443;28;20209;-68
2021/04/16 00:21:03;;;;;;;5.60;4.20;;;;;;;7.50;45.34;102500.00;5020157;28;20414;-67
2021/04/16 00:23:29;;;;;;;4.53;3.90;;;;;;;7.61;45.27;102504.00;5018399;28;20559;-68
2021/04/16 00:25:54;;;;;;;5.90;4.77;;;;;;;7.61;45.84;102498.81;5021050;28;20201;-67
2021/04/16 00:28:21;;;;;;;4.67;4.27;;;;;;;7.46;45.56;102500.66;5022632;28;20501;-68
2021/04/16 00:30:51;;;;;;;5.30;4.40;;;;;;;7.44;46.08;102504.88;5019121;28;20213;-68
2021/04/16 00:33:16;;;;;;;5.07;4.00;;;;;;;7.61;45.12;102493.63;5018897;28;20429;-70
2021/04/16 00:35:42;;;;;;;4.50;4.10;;;;;;;7.41;45.80;102493.53;5019414;28;20668;-68
2021/04/16 00:38:09;;;;;;;5.03;4.53;;;;;;;7.16;46.38;102491.38;5018394;28;20195;-68
2021/04/16 00:40:46;;;;;;;5.33;4.83;;;;;;;7.41;46.14;102484.84;5020212;28;20182;-69
2021/04/16 00:43:16;;;;;;;4.80;4.07;;;;;;;7.03;46.63;102494.13;5022918;28;20421;-69
2021/04/16 00:45:42;;;;;;;4.33;3.93;;;;;;;7.07;46.95;102494.34;5020177;28;20662;-68
2021/04/16 00:48:12;;;;;;;4.10;3.70;;;;;;;7.14;46.83;102489.50;5019934;28;20421;-69
2021/04/16 00:50:51;;;;;;;5.77;4.37;;;;;;;7.20;46.81;102488.13;5018027;28;20171;-68
2021/04/16 00:53:18;;;;;;;4.10;3.70;;;;;;;7.12;47.20;102483.34;5001230;28;20488;-68
2021/04/16 00:55:44;;;;;;;4.30;3.90;;;;;;;7.13;46.75;102487.72;5001420;28;20684;-69
2021/04/16 00:58:09;;;;;;;4.20;3.80;;;;;;;7.04;47.02;102489.03;5001145;28;20519;-68
2021/04/16 01:00:35;;;;;;;3.90;3.50;;;;;;;7.36;47.01;102479.44;5001552;28;20191;-68
2021/04/16 01:03:01;;;;;;;6.03;4.10;;;;;;;7.37;46.24;102483.81;5018431;28;20825;-68
2021/04/16 01:05:26;;;;;;;5.00;4.50;;;;;;;7.41;46.49;102483.16;5018460;28;20418;-69
2021/04/16 01:07:52;;;;;;;4.43;3.70;;;;;;;7.96;45.36;102478.91;5018382;28;20194;-70
2021/04/16 01:10:17;;;;;;;5.67;4.13;;;;;;;7.38;47.35;102485.56;5017381;28;20290;-69
2021/04/16 01:12:43;;;;;;;4.73;3.63;;;;;;;7.63;46.70;102486.81;5017500;28;20186;-69
2021/04/16 01:15:24;;;;;;;4.20;3.70;;;;;;;7.50;46.74;102485.31;5018694;28;20174;-69
2021/04/16 01:17:49;;;;;;;4.20;3.80;;;;;;;7.41;47.22;102482.25;5017659;28;20182;-69
2021/04/16 01:20:21;;;;;;;5.83;4.77;;;;;;;7.52;46.62;102481.09;5018026;28;20422;-69
2021/04/16 01:23:24;;;;;;;5.20;4.20;;;;;;;7.07;48.39;102477.91;5000248;28;20270;-68
2021/04/16 01:25:50;;;;;;;4.20;3.70;;;;;;;7.17;47.73;102475.00;4998931;28;20425;-68
2021/04/16 01:28:15;;;;;;;4.17;3.77;;;;;;;7.45;47.53;102476.41;5017978;28;20511;-68
2021/04/16 01:30:59;;;;;;;4.43;3.80;;;;;;;7.25;47.96;102473.69;5017650;28;20167;-69
2021/04/16 01:33:27;;;;;;;7.10;4.97;;;;;;;7.31;48.23;102478.28;4998391;28;20179;-69
2021/04/16 01:35:52;;;;;;;6.20;3.60;;;;;;;7.17;48.00;102474.09;4998446;28;20422;-68
2021/04/16 01:38:17;;;;;;;5.80;4.00;;;;;;;7.33;48.01;102479.25;5006629;28;20917;-68
2021/04/16 01:40:43;;;;;;;4.83;3.60;;;;;;;7.12;48.97;102472.97;5021911;28;20183;-69
2021/04/16 01:43:23;;;;;;;5.60;3.77;;;;;;;7.33;48.00;102468.88;5017925;28;20230;-68
2021/04/16 01:45:59;;;;;;;4.60;4.20;;;;;;;7.04;49.45;102470.88;5017754;28;20178;-68
2021/04/16 01:48:24;;;;;;;6.20;3.90;;;;;;;7.32;49.07;102468.78;5017928;28;20421;-68
2021/04/16 01:50:49;;;;;;;5.43;3.90;;;;;;;7.34;48.38;102473.25;5017794;28;20422;-70
2021/04/16 01:53:16;;;;;;;6.83;4.27;;;;;;;6.85;49.95;102465.53;5017715;28;20175;-68
2021/04/16 01:55:42;;;;;;;4.90;4.40;;;;;;;7.33;48.45;102465.41;5018785;28;20405;-68
2021/04/16 01:58:07;;;;;;;4.50;4.10;;;;;;;7.28;49.05;102462.59;5021385;28;20446;-68
2021/04/16 02:00:35;;;;;;;7.23;4.23;;;;;;;7.51;48.18;102462.81;5021170;28;20550;-68
2021/04/16 02:03:01;;;;;;;5.33;4.70;;;;;;;7.31;48.68;102461.84;5021890;28;20444;-68
2021/04/16 02:05:26;;;;;;;5.80;3.80;;;;;;;7.38;48.33;102469.13;5021306;28;20413;-68
2021/04/16 02:07:53;;;;;;;4.67;4.27;;;;;;;7.90;46.71;102463.91;5021051;28;20191;-69
2021/04/16 02:10:19;;;;;;;5.07;4.30;;;;;;;7.80;46.95;102468.59;5020461;28;20179;-68
2021/04/16 02:12:44;;;;;;;4.60;4.20;;;;;;;7.60;47.58;102460.69;5021244;28;20483;-68
2021/04/16 02:15:10;;;;;;;5.53;4.23;;;;;;;7.58;48.14;102464.94;5020804;28;20190;-68
2021/04/16 02:17:37;;;;;;;4.60;4.20;;;;;;;7.03;49.19;102471.66;5021345;28;20191;-68
2021/04/16 02:20:07;;;;;;;6.13;4.17;;;;;;;7.02;49.43;102469.00;5020958;28;20425;-69
2021/04/16 02:22:33;;;;;;;4.30;3.90;;;;;;;7.45;48.77;102466.00;5020994;28;20426;-68
2021/04/16 02:24:58;;;;;;;4.57;4.10;;;;;;;7.87;47.16;102466.34;5020699;28;20462;-68
2021/04/16 02:27:26;;;;;;;5.70;4.10;;;;;;;7.33;47.87;102465.41;5020832;28;20179;-68
2021/04/16 02:29:52;;;;;;;4.40;4.00;;;;;;;7.41;48.79;102466.66;5020508;28;20207;-69
2021/04/16 02:32:18;;;;;;;4.63;4.03;;;;;;;7.06;49.38;102473.53;5020774;28;20464;-68
2021/04/16 02:34:43;;;;;;;5.00;3.80;;;;;;;7.24;49.32;102473.63;5020821;28;20429;-69
2021/04/16 02:37:12;;;;;;;3.93;3.63;;;;;;;7.14;49.49;102468.75;5021260;28;20410;-68
2021/04/16 02:39:39;;;;;;;5.10;4.43;;;;;;;7.02;49.80;102469.00;5020513;28;20213;-69
2021/04/16 02:42:04;;;;;;;4.60;4.20;;;;;;;6.98;50.06;102467.06;5020430;28;20422;-67
2021/04/16 02:44:30;;;;;;;6.27;4.50;;;;;;;6.85;49.95;102461.25;5020527;28;20930;-68
2021/04/16 02:46:55;;;;;;;7.47;4.13;;;;;;;7.24;49.35;102458.94;5020133;28;20245;-68
2021/04/16 02:49:22;;;;;;;4.90;4.20;;;;;;;6.72;50.60;102454.53;5020554;28;20229;-67
2021/04/16 02:51:47;;;;;;;4.97;4.20;;;;;;;6.57;50.52;102462.34;5020735;28;20175;-69
2021/04/16 02:54:13;;;;;;;4.33;3.90;;;;;;;6.76;50.34;102452.97;5021483;28;20417;-68
2021/04/16 02:56:38;;;;;;;7.47;4.07;;;;;;;6.85;50.02;102455.19;5020256;28;20177;-69
2021/04/16 02:59:04;;;;;;;4.47;4.03;;;;;;;6.65;50.96;102449.81;5020458;28;20289;-69
2021/04/16 03:01:30;;;;;;;6.20;4.37;;;;;;;6.64;50.79;102449.72;5020279;28;20170;-68
2021/04/16 03:03:55;;;;;;;5.43;4.20;;;;;;;6.60;50.66;102450.38;5020081;28;20655;-69
2021/04/16 03:06:21;;;;;;;4.43;4.03;;;;;;;6.92;49.76;102452.09;5020804;28;20229;-69
2021/04/16 03:08:54;;;;;;;5.43;4.10;;;;;;;6.92;49.96;102454.69;5019334;28;20182;-69
2021/04/16 03:11:20;;;;;;;6.73;4.07;;;;;;;6.85;49.67;102447.41;5019901;28;20508;-68
2021/04/16 03:13:45;;;;;;;4.97;4.47;;;;;;;6.95;49.10;102460.00;5019654;28;20528;-69
2021/04/16 03:16:11;;;;;;;4.30;3.90;;;;;;;6.93;48.89;102453.88;5019934;28;20421;-68
2021/04/16 03:18:37;;;;;;;5.07;4.60;;;;;;;6.88;49.90;102452.72;5020059;28;20285;-68
2021/04/16 03:21:02;;;;;;;4.67;4.27;;;;;;;6.72;50.00;102449.34;5025681;28;20413;-69
2021/04/16 03:23:28;;;;;;;4.30;3.90;;;;;;;6.57;50.15;102443.34;5024096;28;20190;-68
2021/04/16 03:25:53;;;;;;;4.90;4.30;;;;;;;6.22;51.17;102452.66;5023850;28;20170;-68
2021/04/16 03:28:18;;;;;;;4.83;3.87;;;;;;;6.76;49.46;102454.69;5020251;28;20205;-68
2021/04/16 03:30:44;;;;;;;4.83;3.80;;;;;;;7.25;48.70;102452.03;5019863;28;20213;-68
2021/04/16 03:33:09;;;;;;;4.70;4.20;;;;;;;6.80;49.76;102454.03;5019856;28;20560;-68
2021/04/16 03:35:35;;;;;;;4.37;4.00;;;;;;;6.92;49.67;102452.09;5022204;28;20177;-68
2021/04/16 03:38:00;;;;;;;4.53;4.10;;;;;;;7.04;49.06;102451.84;5020713;28;20285;-68
2021/04/16 03:40:28;;;;;;;5.50;4.40;;;;;;;7.08;49.39;102459.84;5019433;28;20179;-68
2021/04/16 03:42:54;;;;;;;4.63;3.90;;;;;;;6.94;48.57;102455.66;5019786;28;20163;-68
2021/04/16 03:45:20;;;;;;;4.73;3.97;;;;;;;6.64;49.80;102460.97;5019520;28;20425;-67
2021/04/16 03:47:46;;;;;;;4.90;4.40;;;;;;;6.98;48.69;102457.59;5019026;28;20164;-68
2021/04/16 03:50:14;;;;;;;6.00;4.27;;;;;;;6.63;49.91;102455.72;5019632;28;20422;-68
2021/04/16 03:52:40;;;;;;;4.50;4.10;;;;;;;7.09;48.89;102447.78;5019209;28;20425;-68
2021/04/16 03:55:06;;;;;;;4.50;4.10;;;;;;;7.04;48.73;102454.44;5019364;28;20466;-68
2021/04/16 03:57:32;;;;;;;4.43;4.03;;;;;;;6.71;49.47;102446.66;5019169;28;20186;-67
2021/04/16 03:59:57;;;;;;;5.50;4.37;;;;;;;6.90;50.10;102453.69;5019096;28;20551;-67
2021/04/16 04:02:23;;;;;;;4.60;4.20;;;;;;;6.99;48.78;102453.28;5019164;28;20203;-68
2021/04/16 04:04:48;;;;;;;6.50;4.17;;;;;;;6.76;49.73;102452.09;5019261;28;20441;-68
2021/04/16 04:07:14;;;;;;;5.37;4.87;;;;;;;6.61;50.26;102449.56;5018905;28;20424;-68
2021/04/16 04:09:39;;;;;;;4.90;4.50;;;;;;;6.49;49.74;102454.97;5019420;28;20175;-69
2021/04/16 04:12:05;;;;;;;5.60;4.10;;;;;;;6.22;51.07;102456.16;5018861;28;20198;-68
2021/04/16 04:14:30;;;;;;;4.30;3.90;;;;;;;6.68;50.16;102449.97;5018889;28;20537;-68
2021/04/16 04:16:58;;;;;;;4.87;4.37;;;;;;;6.83;50.18;102446.41;5018900;28;20422;-68
2021/04/16 04:19:25;;;;;;;6.30;4.50;;;;;;;6.48;50.37;102453.19;5019008;28;20580;-70
2021/04/16 04:21:52;;;;;;;5.00;4.17;;;;;;;6.63;50.04;102453.13;5018510;28;20687;-68
2021/04/16 04:24:18;;;;;;;5.20;4.70;;;;;;;6.80;49.83;102456.63;5018578;28;20521;-69
2021/04/16 04:26:44;;;;;;;5.43;4.53;;;;;;;6.40;51.12;102456.28;5019048;28;20410;-67
2021/04/16 04:29:10;;;;;;;6.00;4.57;;;;;;;6.36;50.64;102451.75;5017699;28;20429;-67
2021/04/16 04:31:36;;;;;;;5.17;4.60;;;;;;;6.33;50.81;102454.16;5013246;28;20225;-68
2021/04/16 04:34:03;;;;;;;5.60;4.60;;;;;;;6.09;51.94;102455.38;5019145;28;20460;-68
2021/04/16 04:36:28;;;;;;;5.10;4.60;;;;;;;6.56;50.39;102452.81;5017672;28;20467;-67
2021/04/16 04:38:53;;;;;;;15.90;10.60;;;;;;;6.00;51.94;102448.00;5018348;28;20862;-67
2021/04/16 04:41:19;;;;;;;10.33;7.40;;;;;;;5.96;52.23;102456.38;5003661;28;20214;-67
2021/04/16 04:43:45;;;;;;;5.50;4.67;;;;;;;6.17;51.75;102460.19;5017110;28;20191;-67
2021/04/16 04:46:10;;;;;;;9.13;6.90;;;;;;;6.30;51.33;102463.47;5018642;28;20468;-67
2021/04/16 04:48:35;;;;;;;8.87;4.60;;;;;;;5.90;52.71;102454.34;5018669;28;20186;-69
2021/04/16 04:51:01;;;;;;;5.07;4.33;;;;;;;6.05;51.75;102457.81;5001863;28;20178;-67
2021/04/16 04:53:26;;;;;;;5.97;5.03;;;;;;;6.36;51.58;102456.91;5016826;28;20190;-67
2021/04/16 04:55:51;;;;;;;4.90;4.40;;;;;;;6.49;51.68;102461.03;5018005;28;20280;-68
2021/04/16 04:58:17;;;;;;;8.93;5.20;;;;;;;6.39;50.92;102464.84;5013515;28;20302;-68
2021/04/16 05:00:42;;;;;;;5.87;4.70;;;;;;;6.26;52.17;102462.38;5017303;28;20259;-68
2021/04/16 05:03:07;;;;;;;21.43;13.50;;;;;;;6.32;51.98;102462.75;5018039;28;20193;-68
2021/04/16 05:05:33;;;;;;;7.23;5.10;;;;;;;6.27;51.55;102461.59;5017277;28;20202;-68
2021/04/16 05:07:58;;;;;;;8.97;5.23;;;;;;;6.03;52.46;102462.00;5016580;28;20498;-68
2021/04/16 05:10:23;;;;;;;18.00;5.30;;;;;;;5.89;52.32;102463.78;5018312;28;20213;-67
2021/04/16 05:12:49;;;;;;;7.10;5.47;;;;;;;6.11;51.75;102458.97;5014420;28;20273;-67
2021/04/16 05:15:16;;;;;;;5.63;4.80;;;;;;;6.32;51.26;102462.75;5015270;28;20202;-67
2021/04/16 05:17:41;;;;;;;5.80;4.97;;;;;;;6.39;51.35;102469.16;5018305;28;20186;-68
2021/04/16 05:20:07;;;;;;;10.53;7.33;;;;;;;6.45;51.68;102463.41;5018015;28;20667;-68
2021/04/16 05:22:33;;;;;;;8.33;4.73;;;;;;;6.59;50.92;102459.88;5020899;28;20175;-68
2021/04/16 05:24:58;;;;;;;8.27;5.33;;;;;;;6.64;50.76;102460.97;5021844;28;20477;-68
2021/04/16 05:27:23;;;;;;;9.53;6.80;;;;;;;6.30;51.51;102458.28;5018310;28;20250;-68
2021/04/16 05:29:49;;;;;;;9.17;5.70;;;;;;;6.23;51.46;102467.41;5018225;28;20250;-67
2021/04/16 05:32:14;;;;;;;7.40;5.30;;;;;;;6.94;50.03;102462.53;5024512;28;20182;-67
2021/04/16 05:34:41;;;;;;;9.50;5.10;;;;;;;6.74;50.85;102467.56;5024132;28;20433;-68
2021/04/16 05:37:07;;;;;;;7.70;4.90;;;;;;;6.76;50.78;102468.53;5022283;28;20203;-67
2021/04/16 05:39:32;;;;;;;5.40;4.90;;;;;;;6.25;52.07;102473.53;5021033;28;20874;-67
2021/04/16 05:41:57;;;;;;;9.67;5.43;;;;;;;6.86;50.82;102463.03;5021699;28;20179;-68
2021/04/16 05:44:23;;;;;;;7.10;5.47;;;;;;;7.22;50.07;102468.31;5021689;28;20179;-69
2021/04/16 05:46:48;;;;;;;6.47;5.10;;;;;;;7.52;48.79;102477.59;5021401;28;20191;-68
2021/04/16 05:49:13;;;;;;;5.80;5.20;;;;;;;7.29;49.34;102479.91;5021586;28;20251;-69
2021/04/16 05:51:39;;;;;;;6.00;5.40;;;;;;;7.82;47.91;102475.66;5021438;28;20186;-68
2021/04/16 05:54:05;;;;;;;6.90;5.30;;;;;;;7.84;48.36;102470.53;5021230;28;20195;-68
2021/04/16 05:56:30;;;;;;;7.50;4.83;;;;;;;7.94;47.93;102464.94;5021472;28;20543;-67
2021/04/16 05:58:55;;;;;;;16.30;11.40;;;;;;;7.92;48.75;102458.78;5022276;28;20560;-67
2021/04/16 06:01:21;;;;;;;12.00;8.60;;;;;;;7.17;50.35;102459.44;5018444;28;20598;-68
2021/04/16 06:03:47;;;;;;;8.63;6.00;;;;;;;7.50;49.98;102468.84;5024291;28;20197;-68
2021/04/16 06:06:13;;;;;;;5.50;5.00;;;;;;;7.61;48.63;102467.69;5021249;28;20171;-68
2021/04/16 06:08:39;;;;;;;6.43;5.20;;;;;;;8.45;47.17;102464.78;4987203;28;20194;-69
2021/04/16 06:11:04;;;;;;;6.70;5.27;;;;;;;8.24;47.46;102468.13;5010089;28;20434;-69
2021/04/16 06:13:30;;;;;;;6.83;6.23;;;;;;;7.61;48.83;102482.38;5021756;28;20190;-68
2021/04/16 06:15:55;;;;;;;7.20;6.00;;;;;;;8.73;46.38;102474.72;5021275;28;20266;-67
2021/04/16 06:18:22;;;;;;;10.90;5.50;;;;;;;9.27;45.11;102471.88;5020918;28;20211;-68
2021/04/16 06:20:47;;;;;;;8.00;6.10;;;;;;;10.05;43.17;102462.91;5019020;28;20468;-68
2021/04/16 06:23:13;;;;;;;6.03;5.40;;;;;;;10.87;41.52;102459.91;5005653;28;20438;-67
2021/04/16 06:25:38;;;;;;;13.83;6.07;;;;;;;12.28;39.23;102458.50;5016718;28;20234;-69
2021/04/16 06:28:05;;;;;;;14.33;6.57;;;;;;;12.33;38.61;102457.78;5021134;28;20163;-69
2021/04/16 06:30:30;;;;;;;11.73;5.97;;;;;;;13.79;36.11;102453.84;5019773;28;20269;-68
2021/04/16 06:33:12;;;;;;;8.77;6.10;;;;;;;14.03;35.08;102455.31;5020071;28;20496;-68
2021/04/16 06:35:39;;;;;;;15.63;6.60;;;;;;;13.77;35.46;102452.06;5020146;28;20229;-69
2021/04/16 06:38:04;;;;;;;6.30;5.70;;;;;;;12.59;38.62;102453.31;5017273;28;20444;-69
2021/04/16 06:40:30;;;;;;;10.30;6.10;;;;;;;13.01;37.35;102452.72;5001394;28;20419;-69
2021/04/16 06:42:56;;;;;;;8.87;6.23;;;;;;;15.41;32.66;102444.91;4999469;28;20240;-71
2021/04/16 06:45:30;;;;;;;8.40;5.77;;;;;;;16.71;31.22;102445.03;5007806;28;20265;-70
2021/04/16 06:47:59;;;;;;;6.70;6.00;;;;;;;15.57;33.10;102446.03;5019741;28;20179;-69
2021/04/16 06:50:27;;;;;;;7.13;6.23;;;;;;;15.97;31.67;102438.81;5016427;28;20424;-70
2021/04/16 06:53:00;;;;;;;6.80;6.10;;;;;;;16.13;31.96;102443.44;5013999;28;20535;-69
2021/04/16 06:55:30;;;;;;;8.07;6.20;;;;;;;16.63;30.78;102444.06;5039834;28;20761;-69
2021/04/16 06:58:01;;;;;;;7.50;6.40;;;;;;;16.12;32.12;102444.28;5021454;28;20436;-70
2021/04/16 07:00:37;;;;;;;10.10;6.63;;;;;;;17.07;29.82;102448.06;5008703;28;20266;-70
2021/04/16 07:03:19;;;;;;;10.13;8.00;;;;;;;17.39;29.10;102435.19;5000475;28;20400;-70
2021/04/16 07:05:50;;;;;;;9.47;7.20;;;;;;;18.50;27.67;102430.63;4994834;28;20391;-69
2021/04/16 07:08:22;;;;;;;7.60;6.37;;;;;;;18.01;27.84;102427.75;4998815;28;20494;-70
2021/04/16 07:10:51;;;;;;;7.10;5.83;;;;;;;17.68;28.39;102429.25;5017664;28;20474;-69
2021/04/16 07:13:25;;;;;;;6.40;5.80;;;;;;;18.51;27.69;102429.75;5015517;28;20521;-69
2021/04/16 07:15:50;;;;;;;7.30;5.90;;;;;;;19.32;25.84;102428.16;5016110;28;20457;-68
2021/04/16 07:18:23;;;;;;;6.50;5.43;;;;;;;19.14;25.94;102423.75;5006454;28;20463;-67
2021/04/16 07:20:48;;;;;;;8.33;5.47;;;;;;;17.11;28.34;102427.03;4991058;28;20217;-68
2021/04/16 07:23:16;;;;;;;6.30;5.60;;;;;;;14.59;32.56;102433.75;5021399;28;20518;-68
2021/04/16 07:26:00;;;;;;;9.67;6.30;;;;;;;16.80;29.47;102423.19;5016969;28;20276;-68
2021/04/16 07:28:46;;;;;;;9.03;5.80;;;;;;;18.58;27.16;102432.38;5013192;28;20500;-68
2021/04/16 07:31:29;;;;;;;6.63;5.50;;;;;;;19.13;25.42;102422.00;5012994;28;20698;-70
2021/04/16 07:33:56;;;;;;;6.77;6.00;;;;;;;19.94;24.63;102422.81;5005770;28;20465;-68
2021/04/16 07:36:24;;;;;;;9.40;5.00;;;;;;;19.61;23.49;102423.75;5008620;28;20438;-68
2021/04/16 07:39:13;;;;;;;5.17;4.67;;;;;;;14.97;28.33;102443.25;5010890;28;20476;-68
2021/04/16 07:41:47;;;;;;;5.17;4.67;;;;;;;16.09;28.40;102431.09;5008160;28;20442;-68
2021/04/16 07:44:25;;;;;;;6.93;5.17;;;;;;;15.18;29.93;102444.50;5016493;28;20449;-70
2021/04/16 07:46:56;;;;;;;6.70;4.90;;;;;;;18.14;25.28;102426.06;5013305;28;20470;-68
2021/04/16 07:49:31;;;;;;;4.30;4.00;;;;;;;17.96;24.38;102434.75;5010019;28;20452;-70
2021/04/16 07:52:19;;;;;;;5.80;4.17;;;;;;;17.81;24.93;102433.75;5001682;28;20452;-69
2021/04/16 07:55:07;;;;;;;5.60;4.30;;;;;;;19.82;22.43;102429.03;4989614;28;20450;-70
2021/04/16 07:57:33;;;;;;;6.67;4.23;;;;;;;19.73;22.30;102444.91;5019416;28;20685;-69
2021/04/16 08:00:07;;;;;;;8.30;4.23;;;;;;;18.83;24.30;102434.25;5013692;28;20474;-71
2021/04/16 08:02:35;;;;;;;5.80;3.93;;;;;;;15.32;27.27;102449.16;4997289;28;20441;-71
2021/04/16 08:05:27;;;;;;;6.30;4.70;;;;;;;17.10;25.38;102441.09;5016899;28;20430;-70
2021/04/16 08:08:12;;;;;;;3.90;3.60;;;;;;;18.56;23.21;102445.59;5015989;28;20445;-70
2021/04/16 08:10:39;;;;;;;4.03;3.73;;;;;;;19.30;22.37;102442.28;5011604;28;20449;-70
2021/04/16 08:13:27;;;;;;;4.20;3.80;;;;;;;20.61;22.10;102434.06;5017157;28;21148;-69
2021/04/16 08:15:54;;;;;;;4.60;3.50;;;;;;;20.31;20.48;102433.31;5015567;28;20445;-71
2021/04/16 08:18:30;;;;;;;3.90;3.47;;;;;;;21.22;19.97;102431.91;5010708;28;20446;-70
2021/04/16 08:21:11;;;;;;;4.43;3.70;;;;;;;20.08;20.88;102428.09;5022388;28;20495;-70
2021/04/16 08:24:01;;;;;;;8.07;6.13;;;;;;;19.94;20.20;102433.41;5012652;28;20573;-71
2021/04/16 08:26:29;;;;;;;3.40;3.10;;;;;;;15.16;26.42;102452.38;4979251;28;20457;-71
2021/04/16 08:29:06;;;;;;;4.83;4.43;;;;;;;19.58;21.36;102429.03;4999775;28;20458;-71
2021/04/16 08:31:37;;;;;;;4.43;4.03;;;;;;;20.35;21.39;102419.16;5004991;28;20517;-71
2021/04/16 08:34:07;;;;;;;17.30;12.93;;;;;;;21.13;19.18;102419.59;5010348;28;20448;-71
2021/04/16 08:36:38;;;;;;;6.40;5.57;;;;;;;19.83;19.95;102425.50;5002079;28;20404;-71
2021/04/16 08:39:34;;;;;;;4.67;3.70;;;;;;;20.60;19.65;102429.63;5016457;28;20457;-70
2021/04/16 08:42:06;;;;;;;4.80;3.87;;;;;;;18.76;22.49;102426.31;5009123;28;20445;-70
2021/04/16 08:44:39;;;;;;;4.03;3.50;;;;;;;18.43;21.80;102434.13;4999758;28;20727;-70
2021/04/16 08:47:06;;;;;;;5.87;3.50;;;;;;;16.18;23.59;102438.22;5016718;28;20425;-70
2021/04/16 08:49:33;;;;;;;4.27;3.30;;;;;;;19.24;20.95;102429.03;5000867;28;20414;-71
2021/04/16 08:52:05;;;;;;;11.23;5.53;;;;;;;19.63;19.74;102417.59;5017133;28;20397;-70
2021/04/16 08:54:35;;;;;;;4.10;3.53;;;;;;;19.30;20.01;102423.75;5017208;28;20472;-71
2021/04/16 08:57:09;;;;;;;4.30;3.60;;;;;;;20.26;18.86;102419.19;5022636;28;20448;-71
2021/04/16 08:59:47;;;;;;;3.63;3.33;;;;;;;18.17;20.94;102431.34;5005596;28;20449;-70
2021/04/16 09:02:24;;;;;;;3.43;3.20;;;;;;;16.87;24.12;102429.41;5014025;28;20490;-71
2021/04/16 09:05:03;;;;;;;5.20;4.00;;;;;;;17.10;22.92;102427.91;5016992;28;20508;-71
2021/04/16 09:07:36;;;;;;;3.50;3.20;;;;;;;17.07;22.50;102430.50;5016779;28;20485;-71
2021/04/16 09:10:28;;;;;;;3.13;2.83;;;;;;;14.59;25.39;102438.13;5016071;28;20454;-71
2021/04/16 09:12:56;;;;;;;4.07;3.67;;;;;;;16.10;22.91;102439.84;4996857;28;20445;-70
2021/04/16 09:15:24;;;;;;;3.60;3.30;;;;;;;18.99;20.87;102429.88;5016910;28;20442;-70
2021/04/16 09:17:52;;;;;;;3.90;3.60;;;;;;;19.73;20.29;102418.44;5016986;28;20429;-70
2021/04/16 09:20:26;;;;;;;3.57;3.27;;;;;;;17.73;22.12;102424.91;5016107;28;20434;-70
2021/04/16 09:22:54;;;;;;;3.63;3.33;;;;;;;20.07;19.61;102421.03;5007975;28;20464;-68
2021/04/16 09:25:38;;;;;;;3.80;3.50;;;;;;;17.22;22.03;102431.53;5016187;28;20465;-68
2021/04/16 09:28:22;;;;;;;3.70;3.40;;;;;;;14.19;26.37;102447.75;5018627;28;20441;-72
2021/04/16 09:31:03;;;;;;;4.43;3.30;;;;;;;14.53;25.99;102444.13;5008891;28;21159;-72
2021/04/16 09:33:38;;;;;;;3.77;3.47;;;;;;;14.49;25.68;102437.94;5015067;28;20452;-72
2021/04/16 09:36:06;;;;;;;4.10;3.70;;;;;;;15.21;24.65;102434.94;5013497;28;20538;-67
2021/04/16 09:38:50;;;;;;;3.47;3.17;;;;;;;17.42;21.70;102429.94;5017453;28;20449;-65
2021/04/16 09:41:19;;;;;;;4.03;3.33;;;;;;;15.47;23.56;102431.88;5013559;28;20512;-66
2021/04/16 09:43:47;;;;;;;4.57;3.47;;;;;;;14.74;24.72;102430.56;5017077;28;20432;-65
2021/04/16 09:46:32;;;;;;;4.60;3.10;;;;;;;15.07;23.91;102432.09;5004799;28;20467;-65
2021/04/16 09:49:23;;;;;;;4.83;3.37;;;;;;;14.38;24.82;102430.69;5014854;28;20469;-66
2021/04/16 09:51:50;;;;;;;3.83;3.20;;;;;;;14.96;24.57;102433.59;5015629;28;20445;-65
2021/04/16 09:54:21;;;;;;;3.17;2.90;;;;;;;14.90;24.22;102429.13;5016042;28;20434;-66
2021/04/16 09:57:01;;;;;;;7.27;3.07;;;;;;;15.04;24.51;102431.13;5021170;28;20523;-66
2021/04/16 09:59:35;;;;;;;3.40;3.10;;;;;;;16.68;22.76;102413.38;5020906;28;20491;-66
2021/04/16 10:02:12;;;;;;;3.67;2.83;;;;;;;17.65;20.56;102413.41;5021449;28;20517;-66
2021/04/16 10:05:07;;;;;;;6.10;3.03;;;;;;;18.65;19.65;102411.28;5017422;28;20405;-66
2021/04/16 10:07:52;;;;;;;3.40;2.60;;;;;;;15.80;22.18;102430.66;5016710;28;20414;-66
2021/04/16 10:10:20;;;;;;;5.53;3.13;;;;;;;14.86;22.61;102429.94;5011672;28;20479;-67
2021/04/16 10:12:45;;;;;;;3.10;2.90;;;;;;;16.65;21.11;102429.16;5018055;28;20461;-69
2021/04/16 10:15:25;;;;;;;3.10;2.57;;;;;;;17.09;20.91;102417.34;5017170;28;20746;-67
2021/04/16 10:17:58;;;;;;;3.30;3.00;;;;;;;19.68;18.86;102399.91;5019399;28;20269;-68
2021/04/16 10:20:24;;;;;;;3.13;2.70;;;;;;;16.11;20.85;102429.34;5019813;28;20500;-67
2021/04/16 10:23:00;;;;;;;3.10;2.90;;;;;;;16.01;21.78;102424.84;5019693;28;20483;-67
2021/04/16 10:52:29;;;;;;;4.50;3.67;;;;;;;19.06;19.51;102380.56;5017437;28;20702;-70
2021/04/16 11:21:20;;;;;;;3.33;3.03;;;;;;;18.32;20.15;102367.16;5032059;28;20481;-67
2021/04/16 12:38:26;;;;;;;3.23;2.80;;;;;;;12.91;27.31;102357.34;5007476;28;20780;-66
2021/04/16 12:40:52;;;;;;;3.53;3.10;;;;;;;12.39;27.79;102358.56;5027171;28;20485;-65
2021/04/16 12:43:18;;;;;;;3.43;3.10;;;;;;;12.46;27.93;102361.41;5023692;28;20564;-66
2021/04/16 12:45:43;;;;;;;3.30;3.00;;;;;;;13.38;27.08;102355.91;5016383;28;20536;-67
2021/04/16 12:48:09;;;;;;;3.50;2.60;;;;;;;14.28;26.46;102358.78;5031968;28;20613;-65
2021/04/16 12:50:34;;;;;;;6.23;3.50;;;;;;;15.66;24.98;102354.19;5015262;28;20214;-65
2021/04/16 12:53:00;;;;;;;3.50;3.20;;;;;;;15.31;24.07;102344.03;5011528;28;20211;-66
2021/04/16 12:55:25;;;;;;;4.77;3.40;;;;;;;15.64;24.62;102332.22;5031207;28;20269;-66
2021/04/16 12:57:53;;;;;;;3.30;3.00;;;;;;;16.32;25.16;102335.78;5031081;28;20193;-66
2021/04/16 13:00:30;;;;;;;4.73;3.20;;;;;;;16.29;23.25;102334.00;5021916;28;20332;-65
2021/04/16 13:03:00;;;;;;;3.60;3.30;;;;;;;15.65;25.33;102334.91;5031349;28;20732;-65
2021/04/16 13:05:26;;;;;;;3.97;3.50;;;;;;;14.96;25.79;102344.31;5033171;28;20518;-66
2021/04/16 13:07:52;;;;;;;5.13;4.00;;;;;;;16.11;25.14;102333.75;5033989;28;20580;-67
2021/04/16 13:10:18;;;;;;;6.50;3.83;;;;;;;16.26;24.78;102328.66;5016815;28;20412;-66
2021/04/16 13:12:43;;;;;;;15.27;5.20;;;;;;;16.18;25.02;102325.06;5017728;28;20564;-66
2021/04/16 13:15:10;;;;;;;17.47;4.67;;;;;;;16.74;23.91;102323.06;5029294;28;20429;-67
2021/04/16 13:17:35;;;;;;;5.33;3.40;;;;;;;16.79;24.70;102332.75;5007876;28;20465;-67
2021/04/16 13:20:01;;;;;;;7.13;3.67;;;;;;;17.04;24.42;102324.22;5031642;28;20508;-67
2021/04/16 13:22:27;;;;;;;3.63;3.30;;;;;;;14.61;26.48;102342.81;5014685;28;20295;-67
2021/04/16 13:24:54;;;;;;;3.87;3.50;;;;;;;13.54;28.78;102336.19;5021949;28;20230;-68
2021/04/16 13:27:22;;;;;;;5.90;3.63;;;;;;;15.64;25.71;102320.00;5023517;28;20482;-66
2021/04/16 13:29:48;;;;;;;4.00;3.70;;;;;;;13.30;29.42;102337.34;5030710;28;20441;-66
2021/04/16 13:32:18;;;;;;;4.53;3.47;;;;;;;15.38;26.33;102322.22;5029488;28;20441;-68
2021/04/16 13:34:45;;;;;;;3.90;3.50;;;;;;;15.75;25.23;102320.13;5017988;28;20290;-67
2021/04/16 13:37:14;;;;;;;5.10;3.77;;;;;;;15.68;25.58;102315.63;5028543;28;20677;-67
2021/04/16 13:39:40;;;;;;;3.97;2.97;;;;;;;15.92;25.73;102309.84;5034406;28;20476;-66
2021/04/16 13:42:06;;;;;;;4.10;3.70;;;;;;;15.85;25.34;102320.28;5020453;28;20417;-68
2021/04/16 13:44:31;;;;;;;3.87;3.27;;;;;;;16.15;25.05;102304.88;5030300;28;20448;-66
2021/04/16 13:47:02;;;;;;;4.43;3.60;;;;;;;15.49;25.87;102317.13;5027493;28;20190;-68